createdAt,value
2023-04-18T00:00:20.921Z,4.500
2023-04-18T00:01:21.798Z,4.200
2023-04-18T00:02:22.943Z,4.500
2023-04-18T00:03:25.929Z,3.900
2023-04-18T00:04:55.241Z,4.350
2023-04-18T00:05:48.553Z,4.300
2023-04-18T00:06:27.690Z,4.100
2023-04-18T00:07:32.960Z,5.400
2023-04-18T00:08:28.534Z,6.600
2023-04-18T00:09:21.785Z,5.600
2023-04-18T00:10:20.001Z,5.500
2023-04-18T00:12:30.545Z,5.100
2023-04-18T00:13:34.121Z,4.200
2023-04-18T00:14:22.678Z,4.200
2023-04-18T00:15:31.678Z,4.400
2023-04-18T00:16:23.452Z,4.600
2023-04-18T00:17:23.828Z,4.900
2023-04-18T00:18:35.391Z,5.100
2023-04-18T00:19:53.365Z,4.850
2023-04-18T00:20:38.565Z,5.100
2023-04-18T00:21:45.357Z,5.100
2023-04-18T00:22:34.940Z,4.600
2023-04-18T00:23:28.803Z,4.350
2023-04-18T00:24:22.070Z,4.300
2023-04-18T00:25:20.653Z,4.600
2023-04-18T00:26:55.331Z,5.700
2023-04-18T00:27:42.249Z,4.700
2023-04-18T00:28:21.585Z,5.400
2023-04-18T00:29:33.822Z,5.250
2023-04-18T00:30:33.927Z,5.800
2023-04-18T00:31:25.841Z,5.000
2023-04-18T00:32:24.658Z,5.400
2023-04-18T00:34:24.026Z,5.650
2023-04-18T00:35:33.004Z,5.400
2023-04-18T00:36:51.390Z,5.600
2023-04-18T00:37:37.228Z,5.400
2023-04-18T00:38:30.358Z,5.800
2023-04-18T00:39:21.730Z,5.700
2023-04-18T00:40:21.643Z,5.700
2023-04-18T00:41:48.056Z,5.550
2023-04-18T00:42:36.208Z,5.000
2023-04-18T00:43:21.991Z,6.000
2023-04-18T00:44:41.944Z,5.500
2023-04-18T00:45:22.900Z,6.400
2023-04-18T00:46:30.003Z,6.700
2023-04-18T00:47:20.540Z,5.100
2023-04-18T00:48:50.647Z,5.800
2023-04-18T00:49:59.524Z,5.000
2023-04-18T00:50:23.875Z,5.800
2023-04-18T00:51:28.571Z,6.300
2023-04-18T00:52:40.681Z,5.550
2023-04-18T00:53:32.360Z,5.200
2023-04-18T00:54:25.572Z,5.500
2023-04-18T00:55:22.313Z,5.350
2023-04-18T00:56:41.435Z,6.000
2023-04-18T00:57:28.095Z,5.500
2023-04-18T00:58:50.325Z,5.450
2023-04-18T00:59:43.250Z,5.000
2023-04-18T01:00:39.345Z,6.100
2023-04-18T01:01:26.300Z,6.000
2023-04-18T01:08:33.931Z,5.700
2023-04-18T01:10:24.524Z,5.800
2023-04-18T01:11:34.693Z,5.900
2023-04-18T01:17:27.035Z,5.900
2023-04-18T01:18:31.122Z,4.700
2023-04-18T01:19:50.328Z,5.500
2023-04-18T01:20:42.308Z,5.700
2023-04-18T01:21:45.355Z,6.200
2023-04-18T01:22:31.507Z,5.800
2023-04-18T01:23:34.112Z,6.250
2023-04-18T01:24:27.459Z,5.800
2023-04-18T01:25:19.236Z,5.900
2023-04-18T01:26:25.772Z,5.700
2023-04-18T01:28:00.428Z,6.050
2023-04-18T01:28:48.454Z,6.600
2023-04-18T01:29:38.899Z,6.300
2023-04-18T01:30:24.593Z,6.700
2023-04-18T01:31:30.368Z,6.200
2023-04-18T01:32:23.926Z,6.100
2023-04-18T01:33:22.280Z,5.400
2023-04-18T01:36:28.805Z,6.000
2023-04-18T01:37:25.774Z,5.900
2023-04-18T01:38:34.270Z,7.600
2023-04-18T01:39:29.398Z,6.000
2023-04-18T01:40:21.137Z,6.500
2023-04-18T01:42:08.162Z,5.400
2023-04-18T01:43:42.057Z,6.200
2023-04-18T01:44:28.278Z,7.400
2023-04-18T01:45:41.322Z,6.300
2023-04-18T01:46:31.944Z,5.800
2023-04-18T01:47:27.109Z,6.250
2023-04-18T01:48:24.390Z,7.800
2023-04-18T01:49:52.163Z,6.900
2023-04-18T01:50:44.869Z,7.550
2023-04-18T01:51:31.540Z,6.200
2023-04-18T01:52:48.400Z,7.000
2023-04-18T01:53:30.755Z,7.250
2023-04-18T01:54:30.809Z,6.500
2023-04-18T01:55:28.547Z,7.400
2023-04-18T01:56:19.705Z,6.800
2023-04-18T01:57:47.271Z,7.150
2023-04-18T01:58:23.292Z,7.100
2023-04-18T01:59:19.608Z,8.000
2023-04-18T02:00:42.672Z,7.200
2023-04-18T02:01:35.188Z,6.650
2023-04-18T02:02:29.287Z,6.800
2023-04-18T02:03:19.703Z,6.100
2023-04-18T02:04:26.173Z,7.050
2023-04-18T02:06:23.928Z,6.850
2023-04-18T02:07:45.653Z,6.950
2023-04-18T02:08:38.561Z,7.600
2023-04-18T02:09:34.666Z,7.400
2023-04-18T02:10:23.475Z,7.200
2023-04-18T02:11:20.311Z,5.800
2023-04-18T02:12:40.299Z,6.800
2023-04-18T02:13:27.185Z,6.900
2023-04-18T02:14:50.393Z,7.850
2023-04-18T02:15:23.127Z,8.000
2023-04-18T02:16:40.991Z,7.900
2023-04-18T02:17:22.052Z,7.600
2023-04-18T02:18:21.086Z,7.400
2023-04-18T02:19:45.937Z,7.300
2023-04-18T02:20:28.527Z,7.200
2023-04-18T02:21:27.973Z,6.800
2023-04-18T02:22:42.702Z,6.000
2023-04-18T02:23:39.875Z,7.700
2023-04-18T02:24:25.460Z,6.000
2023-04-18T02:25:24.970Z,6.600
2023-04-18T02:26:22.240Z,7.600
2023-04-18T02:27:32.914Z,8.200
2023-04-18T02:28:47.549Z,5.950
2023-04-18T02:29:53.335Z,5.700
2023-04-18T02:30:41.189Z,5.600
2023-04-18T02:31:26.544Z,6.200
2023-04-18T02:32:25.014Z,7.500
2023-04-18T02:33:22.699Z,6.650
2023-04-18T02:34:34.404Z,6.700
2023-04-18T02:35:22.986Z,8.050
2023-04-18T02:36:58.751Z,7.850
2023-04-18T02:37:45.141Z,8.600
2023-04-18T02:38:32.039Z,7.900
2023-04-18T02:39:34.885Z,7.400
2023-04-18T02:40:28.700Z,8.500
2023-04-18T02:41:20.594Z,8.400
2023-04-18T02:42:24.689Z,7.000
2023-04-18T02:43:22.627Z,6.700
2023-04-18T02:44:37.432Z,7.450
2023-04-18T02:45:34.545Z,8.500
2023-04-18T02:46:21.616Z,7.900
2023-04-18T02:47:46.944Z,7.700
2023-04-18T02:48:23.615Z,8.000
2023-04-18T02:49:21.536Z,9.400
2023-04-18T02:50:43.927Z,8.300
2023-04-18T02:51:50.125Z,8.450
2023-04-18T02:52:37.111Z,7.500
2023-04-18T02:53:23.128Z,6.800
2023-04-18T02:54:39.220Z,6.950
2023-04-18T02:55:33.776Z,7.100
2023-04-18T02:56:24.842Z,9.800
2023-04-18T02:57:59.635Z,7.800
2023-04-18T02:58:54.177Z,7.300
2023-04-18T02:59:57.295Z,7.600
2023-04-18T03:00:27.718Z,7.100
2023-04-18T03:01:45.487Z,7.500
2023-04-18T03:02:36.230Z,7.300
2023-04-18T03:03:29.170Z,7.900
2023-04-18T03:04:20.075Z,8.250
2023-04-18T03:06:31.135Z,8.200
2023-04-18T03:07:28.560Z,7.850
2023-04-18T03:08:46.930Z,7.700
2023-04-18T03:09:39.562Z,8.000
2023-04-18T03:10:32.547Z,8.800
2023-04-18T03:11:25.821Z,8.700
2023-04-18T03:12:34.235Z,8.100
2023-04-18T03:13:48.599Z,8.000
2023-04-18T03:14:33.567Z,8.800
2023-04-18T03:15:51.270Z,8.800
2023-04-18T03:16:44.421Z,8.750
2023-04-18T03:17:27.216Z,8.600
2023-04-18T03:18:30.265Z,9.100
2023-04-18T03:19:22.209Z,8.900
2023-04-18T03:20:49.184Z,8.000
2023-04-18T03:22:02.559Z,8.500
2023-04-18T03:22:21.908Z,7.900
2023-04-18T03:23:32.791Z,11.300
2023-04-18T03:24:45.669Z,9.100
2023-04-18T03:25:33.919Z,9.600
2023-04-18T03:26:26.325Z,9.900
2023-04-18T03:29:24.643Z,10.150
2023-04-18T03:30:52.281Z,9.700
2023-04-18T03:31:47.260Z,9.500
2023-04-18T03:32:38.525Z,9.300
2023-04-18T03:33:29.742Z,9.600
2023-04-18T03:34:24.303Z,10.200
2023-04-18T03:35:44.208Z,9.500
2023-04-18T03:36:29.883Z,9.900
2023-04-18T03:37:56.002Z,11.050
2023-04-18T03:38:50.113Z,11.700
2023-04-18T03:39:21.914Z,10.500
2023-04-18T03:40:23.592Z,11.000
2023-04-18T03:41:26.787Z,9.800
2023-04-18T03:42:21.481Z,10.400
2023-04-18T03:43:32.673Z,10.150
2023-04-18T03:44:58.537Z,8.750
2023-04-18T03:45:53.424Z,8.400
2023-04-18T03:46:39.534Z,9.000
2023-04-18T03:47:27.543Z,8.200
2023-04-18T03:48:30.656Z,11.800
2023-04-18T03:49:24.119Z,9.550
2023-04-18T03:50:33.526Z,12.800
2023-04-18T03:51:29.897Z,9.600
2023-04-18T03:52:43.182Z,10.950
2023-04-18T03:53:44.675Z,10.100
2023-04-18T03:54:29.554Z,9.000
2023-04-18T03:55:34.718Z,11.000
2023-04-18T03:56:22.803Z,9.000
2023-04-18T03:57:21.680Z,8.800
2023-04-18T03:58:23.820Z,10.400
2023-04-18T04:00:02.972Z,9.100
2023-04-18T04:00:46.770Z,8.600
2023-04-18T04:01:33.139Z,9.600
2023-04-18T04:02:27.649Z,10.100
2023-04-18T04:03:31.626Z,8.800
2023-04-18T04:04:25.849Z,9.400
2023-04-18T04:05:27.304Z,9.300
2023-04-18T04:07:05.168Z,9.900
2023-04-18T04:07:48.665Z,10.600
2023-04-18T04:08:36.648Z,10.100
2023-04-18T04:09:46.435Z,9.300
2023-04-18T04:10:36.922Z,10.400
2023-04-18T04:11:30.558Z,8.400
2023-04-18T04:12:22.591Z,9.700
2023-04-18T04:13:24.328Z,9.500
2023-04-18T04:14:37.315Z,8.800
2023-04-18T04:15:39.951Z,9.400
2023-04-18T04:16:27.231Z,9.400
2023-04-18T04:17:41.251Z,9.650
2023-04-18T04:18:32.537Z,8.700
2023-04-18T04:19:27.167Z,9.300
2023-04-18T04:20:42.852Z,10.000
2023-04-18T04:21:55.984Z,11.000
2023-04-18T04:22:45.100Z,9.400
2023-04-18T04:23:28.791Z,10.000
2023-04-18T04:24:22.281Z,9.600
2023-04-18T04:25:38.619Z,9.450
2023-04-18T04:26:31.671Z,10.800
2023-04-18T04:28:01.556Z,10.800
2023-04-18T04:28:58.399Z,9.700
2023-04-18T04:29:45.080Z,9.600
2023-04-18T04:30:27.052Z,10.700
2023-04-18T04:31:38.619Z,9.700
2023-04-18T04:32:44.934Z,10.000
2023-04-18T04:33:35.661Z,8.600
2023-04-18T04:34:25.659Z,10.200
2023-04-18T04:36:16.719Z,10.800
2023-04-18T04:37:35.873Z,11.150
2023-04-18T04:38:22.724Z,10.000
2023-04-18T04:39:45.577Z,10.450
2023-04-18T04:40:38.435Z,11.200
2023-04-18T04:41:25.797Z,9.300
2023-04-18T04:42:41.364Z,10.100
2023-04-18T04:44:03.805Z,11.200
2023-04-18T04:44:50.125Z,11.400
2023-04-18T04:45:27.153Z,9.900
2023-04-18T04:46:51.890Z,10.950
2023-04-18T04:47:29.311Z,10.700
2023-04-18T04:48:36.596Z,11.800
2023-04-18T04:49:28.807Z,11.600
2023-04-18T04:50:20.718Z,11.700
2023-04-18T04:53:34.945Z,10.950
2023-04-18T04:54:49.443Z,11.400
2023-04-18T04:55:41.717Z,11.900
2023-04-18T04:56:23.620Z,10.700
2023-04-18T04:57:24.262Z,11.800
2023-04-18T04:58:24.870Z,11.150
2023-04-18T04:59:32.124Z,11.200
2023-04-18T05:00:52.069Z,10.700
2023-04-18T05:01:52.357Z,11.400
2023-04-18T05:02:39.309Z,10.900
2023-04-18T05:03:24.517Z,12.500
2023-04-18T05:04:30.535Z,10.800
2023-04-18T05:05:22.144Z,11.300
2023-04-18T05:06:32.792Z,11.600
2023-04-18T05:07:20.146Z,12.300
2023-04-18T05:08:56.946Z,10.750
2023-04-18T05:09:21.743Z,9.800
2023-04-18T05:10:36.639Z,10.700
2023-04-18T05:11:34.429Z,9.300
2023-04-18T05:12:28.380Z,9.200
2023-04-18T05:13:19.320Z,9.600
2023-04-18T05:14:22.881Z,9.900
2023-04-18T05:15:27.665Z,10.250
2023-04-18T05:16:41.125Z,11.200
2023-04-18T05:17:31.012Z,10.100
2023-04-18T05:18:37.487Z,9.400
2023-04-18T05:19:30.189Z,11.000
2023-04-18T05:20:25.171Z,10.500
2023-04-18T05:21:31.817Z,10.800
2023-04-18T05:22:47.009Z,11.100
2023-04-18T05:23:47.901Z,11.300
2023-04-18T05:24:36.619Z,10.100
2023-04-18T05:25:20.412Z,11.600
2023-04-18T05:26:26.126Z,11.450
2023-04-18T05:27:29.732Z,10.750
2023-04-18T05:28:22.799Z,13.200
2023-04-18T05:30:08.627Z,9.900
2023-04-18T05:30:51.557Z,10.650
2023-04-18T05:31:38.449Z,10.800
2023-04-18T05:32:25.125Z,11.000
2023-04-18T05:33:43.957Z,9.400
2023-04-18T05:34:32.944Z,10.200
2023-04-18T05:35:26.219Z,12.000
2023-04-18T05:37:07.088Z,10.500
2023-04-18T05:38:35.431Z,9.850
2023-04-18T05:39:27.665Z,11.200
2023-04-18T05:40:43.447Z,10.900
2023-04-18T05:41:37.778Z,10.900
2023-04-18T05:42:29.398Z,10.500
2023-04-18T05:43:24.535Z,11.100
2023-04-18T05:44:38.898Z,10.300
2023-04-18T05:45:45.110Z,10.050
2023-04-18T05:46:31.509Z,9.400
2023-04-18T05:47:49.426Z,10.100
2023-04-18T05:48:42.746Z,10.300
2023-04-18T05:49:35.553Z,11.050
2023-04-18T05:50:28.232Z,10.700
2023-04-18T05:51:19.367Z,11.500
2023-04-18T05:52:47.326Z,10.350
2023-04-18T05:53:34.224Z,10.400
2023-04-18T05:54:21.109Z,11.000
2023-04-18T05:55:37.010Z,11.150
2023-04-18T05:56:38.860Z,13.200
2023-04-18T05:57:31.774Z,13.200
2023-04-18T05:58:23.866Z,10.450
2023-04-18T05:59:50.380Z,9.100
2023-04-18T06:00:30.174Z,10.500
2023-04-18T06:01:46.748Z,10.950
2023-04-18T06:02:50.555Z,11.500
2023-04-18T06:03:45.416Z,10.900
2023-04-18T06:04:36.541Z,10.700
2023-04-18T06:05:21.469Z,10.100
2023-04-18T06:06:21.086Z,10.850
2023-04-18T06:08:27.355Z,11.150
2023-04-18T06:09:52.529Z,10.850
2023-04-18T06:10:48.054Z,10.900
2023-04-18T06:11:27.229Z,10.800
2023-04-18T06:12:21.654Z,9.400
2023-04-18T06:13:25.325Z,10.800
2023-04-18T06:14:43.612Z,10.800
2023-04-18T06:15:31.611Z,9.600
2023-04-18T06:16:59.265Z,10.900
2023-04-18T06:17:31.595Z,9.800
2023-04-18T06:18:38.738Z,11.600
2023-04-18T06:19:25.271Z,10.300
2023-04-18T06:20:30.659Z,11.000
2023-04-18T06:21:22.371Z,9.200
2023-04-18T06:22:31.884Z,9.350
2023-04-18T06:23:36.090Z,10.500
2023-04-18T06:24:49.070Z,11.500
2023-04-18T06:25:42.178Z,10.900
2023-04-18T06:26:28.851Z,9.900
2023-04-18T06:27:32.619Z,11.400
2023-04-18T06:28:27.001Z,10.400
2023-04-18T06:29:21.128Z,12.600
2023-04-18T06:30:21.854Z,10.600
2023-04-18T06:31:57.621Z,10.600
2023-04-18T06:32:45.920Z,11.100
2023-04-18T06:33:30.077Z,11.600
2023-04-18T06:34:34.489Z,11.400
2023-04-18T06:35:27.537Z,11.200
2023-04-18T06:36:21.694Z,12.400
2023-04-18T06:37:25.234Z,10.950
2023-04-18T06:39:24.467Z,10.400
2023-04-18T06:40:34.113Z,9.700
2023-04-18T06:41:21.438Z,11.200
2023-04-18T06:42:34.872Z,10.800
2023-04-18T06:43:26.261Z,9.500
2023-04-18T06:44:23.390Z,11.500
2023-04-18T06:45:29.960Z,9.900
2023-04-18T06:46:46.160Z,10.200
2023-04-18T06:47:37.142Z,8.900
2023-04-18T06:48:24.047Z,9.000
2023-04-18T06:49:36.016Z,10.900
2023-04-18T06:50:20.856Z,9.500
2023-04-18T06:51:22.679Z,9.300
2023-04-18T06:52:49.386Z,9.400
2023-04-18T06:53:52.895Z,10.500
2023-04-18T06:54:40.691Z,9.700
2023-04-18T06:55:25.757Z,10.500
2023-04-18T06:56:27.752Z,11.250
2023-04-18T06:57:34.694Z,10.800
2023-04-18T06:58:27.488Z,9.100
2023-04-18T06:59:23.517Z,9.400
2023-04-18T07:00:56.513Z,10.350
2023-04-18T07:01:46.353Z,10.700
2023-04-18T07:02:32.158Z,9.800
2023-04-18T07:03:48.184Z,9.900
2023-04-18T07:04:38.286Z,9.450
2023-04-18T07:05:31.949Z,9.000
2023-04-18T07:06:26.305Z,8.000
2023-04-18T07:07:19.520Z,8.100
2023-04-18T07:08:38.744Z,8.650
2023-04-18T07:09:32.969Z,8.600
2023-04-18T07:10:47.326Z,8.700
2023-04-18T07:11:41.555Z,8.750
2023-04-18T07:12:33.214Z,8.900
2023-04-18T07:13:31.463Z,9.700
2023-04-18T07:14:19.247Z,8.400
2023-04-18T07:15:49.356Z,8.900
2023-04-18T07:16:36.387Z,8.200
2023-04-18T07:17:22.233Z,9.200
2023-04-18T07:18:30.204Z,10.000
2023-04-18T07:19:34.428Z,8.800
2023-04-18T07:20:32.424Z,8.600
2023-04-18T07:21:24.089Z,8.300
2023-04-18T07:22:20.748Z,10.100
2023-04-18T07:23:39.250Z,9.500
2023-04-18T07:24:56.793Z,9.400
2023-04-18T07:25:38.831Z,8.400
2023-04-18T07:26:44.098Z,7.800
2023-04-18T07:27:36.291Z,8.900
2023-04-18T07:28:20.980Z,8.400
2023-04-18T07:29:20.522Z,10.200
2023-04-18T07:30:31.894Z,8.200
2023-04-18T07:31:27.401Z,8.200
2023-04-18T07:32:54.386Z,8.950
2023-04-18T07:33:47.189Z,9.250
2023-04-18T07:34:39.698Z,8.700
2023-04-18T07:35:24.529Z,8.500
2023-04-18T07:36:24.541Z,8.600
2023-04-18T07:37:22.625Z,8.350
2023-04-18T07:38:32.288Z,7.900
2023-04-18T07:39:58.443Z,9.350
2023-04-18T07:40:51.331Z,9.100
2023-04-18T07:41:28.287Z,8.100
2023-04-18T07:42:26.961Z,8.700
2023-04-18T07:43:28.202Z,8.100
2023-04-18T07:44:21.246Z,7.750
2023-04-18T07:45:20.094Z,7.500
2023-04-18T07:46:20.864Z,9.400
2023-04-18T07:47:33.572Z,8.350
2023-04-18T07:48:48.615Z,9.600
2023-04-18T07:49:40.820Z,6.500
2023-04-18T07:50:32.511Z,7.600
2023-04-18T07:51:26.329Z,7.800
2023-04-18T07:52:39.525Z,7.300
2023-04-18T07:53:24.903Z,7.900
2023-04-18T07:54:50.668Z,7.550
2023-04-18T07:55:47.025Z,8.600
2023-04-18T07:56:34.369Z,9.900
2023-04-18T07:57:36.783Z,8.600
2023-04-18T07:58:29.418Z,8.500
2023-04-18T07:59:23.128Z,8.350
2023-04-18T08:00:21.443Z,7.800
2023-04-18T08:02:03.253Z,8.100
2023-04-18T08:02:49.234Z,9.000
2023-04-18T08:03:22.956Z,7.500
2023-04-18T08:04:22.337Z,7.700
2023-04-18T08:05:34.129Z,8.800
2023-04-18T08:06:28.887Z,8.650
2023-04-18T08:07:20.187Z,7.600
2023-04-18T08:09:25.540Z,7.700
2023-04-18T08:10:39.656Z,7.700
2023-04-18T08:11:27.488Z,7.900
2023-04-18T08:12:37.956Z,8.100
2023-04-18T08:13:31.913Z,8.950
2023-04-18T08:14:22.997Z,7.400
2023-04-18T08:15:21.773Z,7.500
2023-04-18T08:16:45.846Z,8.500
2023-04-18T08:17:42.743Z,7.550
2023-04-18T08:18:28.882Z,7.900
2023-04-18T08:19:45.134Z,9.400
2023-04-18T08:20:23.418Z,10.000
2023-04-18T08:21:28.586Z,10.100
2023-04-18T08:22:24.459Z,8.900
2023-04-18T08:23:58.589Z,7.600
2023-04-18T08:25:00.952Z,9.500
2023-04-18T08:25:30.831Z,8.700
2023-04-18T08:26:30.238Z,7.600
2023-04-18T08:27:46.774Z,8.800
2023-04-18T08:28:33.594Z,8.100
2023-04-18T08:29:27.226Z,6.900
2023-04-18T08:30:24.611Z,7.300
2023-04-18T08:31:20.788Z,7.100
2023-04-18T08:32:35.289Z,7.000
2023-04-18T08:33:22.301Z,8.400
2023-04-18T08:34:45.132Z,8.100
2023-04-18T08:35:37.012Z,8.800
2023-04-18T08:36:29.490Z,7.900
2023-04-18T08:37:26.969Z,6.900
2023-04-18T08:38:21.122Z,7.700
2023-04-18T08:39:25.514Z,6.500
2023-04-18T08:40:25.147Z,6.550
2023-04-18T08:41:48.132Z,7.400
2023-04-18T08:42:27.066Z,7.400
2023-04-18T08:43:32.543Z,8.000
2023-04-18T08:44:25.337Z,7.600
2023-04-18T08:45:25.752Z,6.850
2023-04-18T08:46:44.081Z,5.600
2023-04-18T08:47:22.698Z,7.200
2023-04-18T08:48:21.948Z,7.800
2023-04-18T08:49:36.071Z,6.800
2023-04-18T08:50:23.365Z,7.800
2023-04-18T08:51:23.896Z,6.650
2023-04-18T08:52:22.092Z,6.700
2023-04-18T08:53:22.253Z,6.100
2023-04-18T08:54:21.375Z,6.400
2023-04-18T08:55:40.905Z,6.450
2023-04-18T08:56:27.269Z,7.300
2023-04-18T08:57:23.771Z,5.900
2023-04-18T08:58:19.525Z,5.800
2023-04-18T08:59:26.628Z,6.350
2023-04-18T09:00:19.605Z,7.050
2023-04-18T09:01:21.440Z,6.500
2023-04-18T09:02:21.767Z,6.950
2023-04-18T09:03:27.836Z,5.900
2023-04-18T09:04:23.363Z,8.300
2023-04-18T09:05:20.697Z,5.600
2023-04-18T09:06:31.480Z,6.000
2023-04-18T09:07:25.723Z,6.800
2023-04-18T09:08:25.624Z,5.850
2023-04-18T09:09:22.701Z,6.300
2023-04-18T09:10:28.386Z,5.800
2023-04-18T09:11:23.765Z,6.050
2023-04-18T09:12:19.487Z,6.700
2023-04-18T09:13:30.248Z,6.050
2023-04-18T09:14:27.937Z,6.350
2023-04-18T09:15:21.254Z,7.700
2023-04-18T09:16:21.127Z,6.100
2023-04-18T09:17:29.623Z,5.100
2023-04-18T09:18:23.402Z,5.450
2023-04-18T09:19:20.540Z,6.000
2023-04-18T09:20:20.781Z,7.200
2023-04-18T09:21:26.371Z,6.500
2023-04-18T09:22:26.663Z,6.300
2023-04-18T09:23:25.273Z,6.500
2023-04-18T09:24:27.568Z,6.300
2023-04-18T09:25:26.231Z,5.700
2023-04-18T09:26:20.795Z,5.350
2023-04-18T09:27:23.734Z,5.500
2023-04-18T09:28:27.523Z,5.000
2023-04-18T09:29:21.718Z,4.600
2023-04-18T09:30:21.637Z,5.750
2023-04-18T09:31:23.857Z,5.800
2023-04-18T09:32:24.453Z,5.600
2023-04-18T09:33:22.007Z,5.700
2023-04-18T09:34:29.466Z,5.700
2023-04-18T09:35:26.598Z,6.400
2023-04-18T09:36:21.550Z,6.500
2023-04-18T09:37:26.960Z,5.400
2023-04-18T09:38:21.887Z,6.650
2023-04-18T09:39:21.729Z,6.100
2023-04-18T09:40:19.732Z,5.500
2023-04-18T09:41:29.976Z,5.000
2023-04-18T09:42:28.798Z,5.850
2023-04-18T09:43:21.515Z,5.400
2023-04-18T09:44:21.678Z,4.800
2023-04-18T09:45:27.270Z,5.050
2023-04-18T09:46:24.194Z,6.700
2023-04-18T09:47:20.572Z,5.800
2023-04-18T09:48:29.403Z,5.100
2023-04-18T09:49:21.671Z,4.400
2023-04-18T09:50:21.388Z,4.900
2023-04-18T09:51:33.083Z,6.000
2023-04-18T09:52:27.949Z,5.050
2023-04-18T09:53:20.773Z,5.000
2023-04-18T09:54:21.313Z,4.850
2023-04-18T09:55:30.837Z,5.900
2023-04-18T09:56:25.315Z,4.800
2023-04-18T09:57:21.707Z,5.700
2023-04-18T09:58:31.674Z,5.050
2023-04-18T09:59:28.887Z,5.600
2023-04-18T10:00:23.629Z,5.600
2023-04-18T10:01:22.822Z,5.350
2023-04-18T10:02:29.944Z,4.850
2023-04-18T10:03:25.888Z,5.500
2023-04-18T10:04:23.106Z,5.550
2023-04-18T10:05:33.935Z,5.250
2023-04-18T10:06:29.010Z,5.800
2023-04-18T10:07:23.374Z,4.400
2023-04-18T10:08:20.656Z,5.050
2023-04-18T10:09:22.388Z,5.050
2023-04-18T10:10:27.178Z,5.100
2023-04-18T10:11:21.471Z,5.500
2023-04-18T10:12:31.386Z,6.100
2023-04-18T10:13:29.324Z,5.550
2023-04-18T10:14:26.080Z,5.100
2023-04-18T10:15:19.147Z,5.400
2023-04-18T10:16:26.631Z,5.000
2023-04-18T10:17:20.227Z,5.000
2023-04-18T10:18:23.591Z,4.550
2023-04-18T10:19:31.533Z,5.350
2023-04-18T10:20:27.680Z,5.600
2023-04-18T10:21:26.096Z,5.550
2023-04-18T10:22:19.430Z,5.350
2023-04-18T10:23:23.646Z,6.000
2023-04-18T10:24:29.558Z,4.550
2023-04-18T10:25:21.870Z,4.200
2023-04-18T10:26:31.641Z,4.900
2023-04-18T10:27:28.796Z,5.050
2023-04-18T10:28:23.718Z,5.100
2023-04-18T10:29:21.934Z,4.900
2023-04-18T10:30:26.374Z,4.500
2023-04-18T10:31:27.915Z,4.500
2023-04-18T10:32:23.125Z,4.050
2023-04-18T10:33:33.948Z,5.800
2023-04-18T10:34:28.156Z,4.900
2023-04-18T10:35:27.381Z,5.200
2023-04-18T10:36:19.840Z,7.300
2023-04-18T10:37:29.377Z,5.950
2023-04-18T10:38:26.160Z,7.000
2023-04-18T10:39:21.764Z,8.200
2023-04-18T10:40:31.802Z,9.200
2023-04-18T10:41:29.522Z,4.500
2023-04-18T10:42:23.560Z,8.150
2023-04-18T10:43:21.566Z,9.700
2023-04-18T10:44:30.602Z,10.500
2023-04-18T10:45:26.676Z,5.300
2023-04-18T10:46:31.776Z,6.200
2023-04-18T10:47:22.588Z,9.100
2023-04-18T10:48:27.480Z,6.500
2023-04-18T10:49:26.902Z,4.800
2023-04-18T10:50:20.092Z,5.100
2023-04-18T10:51:29.381Z,5.750
2023-04-18T10:52:32.927Z,5.550
2023-04-18T10:53:23.928Z,4.100
2023-04-18T10:54:22.424Z,4.300
2023-04-18T10:55:19.617Z,5.750
2023-04-18T10:56:24.056Z,8.300
2023-04-18T10:57:21.359Z,5.600
2023-04-18T10:58:31.436Z,5.850
2023-04-18T10:59:25.592Z,5.100
2023-04-18T11:00:21.829Z,4.100
2023-04-18T11:01:22.429Z,4.600
2023-04-18T11:02:23.892Z,5.250
2023-04-18T11:03:24.718Z,6.000
2023-04-18T11:04:20.127Z,4.800
2023-04-18T11:05:29.886Z,4.900
2023-04-18T11:06:27.640Z,4.650
2023-04-18T11:07:21.569Z,10.950
2023-04-18T11:08:27.160Z,6.200
2023-04-18T11:09:29.444Z,7.050
2023-04-18T11:10:25.894Z,4.000
2023-04-18T11:11:19.277Z,7.750
2023-04-18T11:12:23.191Z,10.800
2023-04-18T11:13:25.475Z,9.200
2023-04-18T11:14:23.493Z,6.100
2023-04-18T11:15:35.467Z,7.650
2023-04-18T11:16:21.534Z,7.900
2023-04-18T11:17:24.950Z,7.250
2023-04-18T11:18:19.286Z,7.950
2023-04-18T11:19:25.057Z,10.600
2023-04-18T11:20:28.640Z,7.250
2023-04-18T11:21:21.466Z,8.000
2023-04-18T11:22:32.819Z,5.200
2023-04-18T11:23:28.866Z,7.200
2023-04-18T11:24:23.557Z,6.700
2023-04-18T11:25:20.216Z,7.950
2023-04-18T11:26:31.403Z,6.750
2023-04-18T11:27:25.830Z,6.600
2023-04-18T11:28:23.360Z,8.500
2023-04-18T11:29:33.223Z,6.500
2023-04-18T11:30:29.421Z,5.500
2023-04-18T11:31:25.837Z,7.050
2023-04-18T11:32:19.782Z,7.000
2023-04-18T11:33:20.305Z,5.900
2023-04-18T11:34:27.502Z,7.850
2023-04-18T11:35:21.813Z,7.700
2023-04-18T11:36:31.548Z,7.500
2023-04-18T11:37:29.663Z,8.850
2023-04-18T11:38:26.464Z,6.900
2023-04-18T11:39:21.756Z,5.850
2023-04-18T11:40:23.836Z,4.900
2023-04-18T11:41:26.404Z,5.750
2023-04-18T11:42:21.736Z,5.600
2023-04-18T11:43:33.263Z,3.900
2023-04-18T11:44:27.672Z,4.000
2023-04-18T11:45:25.160Z,6.050
2023-04-18T11:46:19.912Z,7.900
2023-04-18T11:47:29.591Z,7.900
2023-04-18T11:48:23.026Z,5.900
2023-04-18T11:49:22.414Z,5.200
2023-04-18T11:50:31.940Z,5.500
2023-04-18T11:51:28.681Z,5.300
2023-04-18T11:52:24.284Z,5.950
2023-04-18T11:53:19.864Z,7.800
2023-04-18T11:54:21.155Z,4.450
2023-04-18T11:55:27.936Z,5.550
2023-04-18T11:56:21.705Z,6.300
2023-04-18T11:57:33.753Z,5.900
2023-04-18T11:58:27.553Z,7.550
2023-04-18T11:59:23.573Z,8.900
2023-04-18T12:00:19.769Z,7.550
2023-04-18T12:01:24.239Z,9.300
2023-04-18T12:02:27.923Z,6.150
2023-04-18T12:03:22.290Z,6.800
2023-04-18T12:04:31.618Z,8.000
2023-04-18T12:05:29.013Z,7.100
2023-04-18T12:06:25.358Z,6.750
2023-04-18T12:07:21.102Z,5.800
2023-04-18T12:08:31.271Z,6.700
2023-04-18T12:09:21.835Z,4.600
2023-04-18T12:10:21.566Z,6.650
2023-04-18T12:11:21.558Z,5.800
2023-04-18T12:12:29.423Z,5.200
2023-04-18T12:13:24.362Z,7.400
2023-04-18T12:14:19.972Z,5.650
2023-04-18T12:15:33.766Z,5.700
2023-04-18T12:16:25.755Z,4.300
2023-04-18T12:17:23.172Z,4.550
2023-04-18T12:18:23.643Z,5.400
2023-04-18T12:19:27.988Z,6.200
2023-04-18T12:20:23.403Z,5.050
2023-04-18T12:21:21.263Z,5.000
2023-04-18T12:22:31.490Z,5.600
2023-04-18T12:23:26.125Z,4.700
2023-04-18T12:24:25.128Z,6.200
2023-04-18T12:25:29.827Z,6.900
2023-04-18T12:26:21.013Z,5.750
2023-04-18T12:27:23.598Z,4.400
2023-04-18T12:28:21.353Z,4.600
2023-04-18T12:29:29.822Z,4.700
2023-04-18T12:30:25.916Z,6.100
2023-04-18T12:31:23.994Z,6.450
2023-04-18T12:32:32.333Z,4.150
2023-04-18T12:33:29.393Z,4.000
2023-04-18T12:34:23.373Z,4.300
2023-04-18T12:35:19.495Z,4.500
2023-04-18T12:36:31.612Z,5.200
2023-04-18T12:37:26.424Z,4.900
2023-04-18T12:38:23.197Z,3.600
2023-04-18T12:39:24.964Z,4.300
2023-04-18T12:40:29.368Z,5.700
2023-04-18T12:41:25.105Z,5.000
2023-04-18T12:42:19.434Z,3.650
2023-04-18T12:43:29.705Z,4.400
2023-04-18T12:44:27.424Z,5.350
2023-04-18T12:45:22.037Z,4.500
2023-04-18T12:46:29.410Z,5.250
2023-04-18T12:47:20.416Z,4.450
2023-04-18T12:48:27.124Z,5.600
2023-04-18T12:49:30.272Z,5.100
2023-04-18T12:50:31.142Z,4.750
2023-04-18T12:51:25.716Z,4.000
2023-04-18T12:52:23.405Z,4.300
2023-04-18T12:53:33.342Z,4.700
2023-04-18T12:54:24.609Z,5.100
2023-04-18T12:55:20.094Z,4.750
2023-04-18T12:56:22.001Z,4.100
2023-04-18T12:57:31.669Z,4.300
2023-04-18T12:58:27.053Z,4.500
2023-04-18T12:59:22.476Z,3.800
2023-04-18T13:00:32.369Z,5.100
2023-04-18T13:01:30.309Z,5.150
2023-04-18T13:02:23.768Z,5.650
2023-04-18T13:03:19.887Z,4.100
2023-04-18T13:04:23.218Z,5.250
2023-04-18T13:05:25.623Z,3.850
2023-04-18T13:06:22.117Z,4.200
2023-04-18T13:07:33.024Z,4.200
2023-04-18T13:08:27.634Z,5.100
2023-04-18T13:09:27.224Z,3.450
2023-04-18T13:10:19.846Z,3.250
2023-04-18T13:11:25.719Z,4.400
2023-04-18T13:12:25.551Z,3.900
2023-04-18T13:13:21.731Z,4.700
2023-04-18T13:14:34.117Z,4.700
2023-04-18T13:15:28.863Z,3.550